sensor_id;sensor_type;location;lat;lon;timestamp;temperature;humidity
11087;DHT22;5597;47.588;9.642;2023-10-09T00:00:10;14.40;99.90
11087;DHT22;5597;47.588;9.642;2023-10-09T00:02:55;14.40;99.90
11087;DHT22;5597;47.588;9.642;2023-10-09T00:05:20;14.50;99.90
11087;DHT22;5597;47.588;9.642;2023-10-09T00:07:56;14.50;99.90
11087;DHT22;5597;47.588;9.642;2023-10-09T00:10:23;14.50;99.90
11087;DHT22;5597;47.588;9.642;2023-10-09T00:12:50;14.50;99.90
11087;DHT22;5597;47.588;9.642;2023-10-09T00:15:16;14.50;99.90
11087;DHT22;5597;47.588;9.642;2023-10-09T00:17:44;14.40;99.90
11087;DHT22;5597;47.588;9.642;2023-10-09T00:20:12;14.30;99.90
11087;DHT22;5597;47.588;9.642;2023-10-09T00:22:45;14.30;99.90
11087;DHT22;5597;47.588;9.642;2023-10-09T00:25:12;14.20;99.90
11087;DHT22;5597;47.588;9.642;2023-10-09T00:27:42;14.10;99.90
11087;DHT22;5597;47.588;9.642;2023-10-09T00:30:12;14.00;99.90
11087;DHT22;5597;47.588;9.642;2023-10-09T00:32:44;13.90;99.90
11087;DHT22;5597;47.588;9.642;2023-10-09T00:35:30;13.80;99.90
11087;DHT22;5597;47.588;9.642;2023-10-09T00:38:08;13.80;99.90
11087;DHT22;5597;47.588;9.642;2023-10-09T00:40:42;13.70;99.90
11087;DHT22;5597;47.588;9.642;2023-10-09T00:43:13;13.60;99.90
11087;DHT22;5597;47.588;9.642;2023-10-09T00:45:40;13.60;99.90
11087;DHT22;5597;47.588;9.642;2023-10-09T00:48:09;13.50;99.90
11087;DHT22;5597;47.588;9.642;2023-10-09T00:50:35;13.50;99.90
11087;DHT22;5597;47.588;9.642;2023-10-09T00:53:02;13.40;99.90
11087;DHT22;5597;47.588;9.642;2023-10-09T00:55:32;13.30;99.90
11087;DHT22;5597;47.588;9.642;2023-10-09T00:58:06;13.30;99.90
11087;DHT22;5597;47.588;9.642;2023-10-09T01:00:38;13.30;99.90
11087;DHT22;5597;47.588;9.642;2023-10-09T01:03:11;13.20;99.90
11087;DHT22;5597;47.588;9.642;2023-10-09T01:05:55;13.10;99.90
11087;DHT22;5597;47.588;9.642;2023-10-09T01:08:29;13.10;99.90
11087;DHT22;5597;47.588;9.642;2023-10-09T01:11:16;13.00;99.90
11087;DHT22;5597;47.588;9.642;2023-10-09T01:13:55;13.00;99.90
11087;DHT22;5597;47.588;9.642;2023-10-09T01:16:28;12.90;99.90
11087;DHT22;5597;47.588;9.642;2023-10-09T01:18:56;12.90;99.90
11087;DHT22;5597;47.588;9.642;2023-10-09T01:21:25;12.90;99.90
11087;DHT22;5597;47.588;9.642;2023-10-09T01:23:53;12.90;99.90
11087;DHT22;5597;47.588;9.642;2023-10-09T01:26:47;12.80;99.90
11087;DHT22;5597;47.588;9.642;2023-10-09T01:29:18;12.80;99.90
11087;DHT22;5597;47.588;9.642;2023-10-09T01:31:48;12.80;99.90
11087;DHT22;5597;47.588;9.642;2023-10-09T01:34:18;12.70;99.90
11087;DHT22;5597;47.588;9.642;2023-10-09T01:36:45;12.70;99.90
11087;DHT22;5597;47.588;9.642;2023-10-09T01:39:14;12.70;99.90
11087;DHT22;5597;47.588;9.642;2023-10-09T01:41:50;12.70;99.90
11087;DHT22;5597;47.588;9.642;2023-10-09T01:44:17;12.70;99.90
11087;DHT22;5597;47.588;9.642;2023-10-09T01:46:44;12.70;99.90
11087;DHT22;5597;47.588;9.642;2023-10-09T01:49:12;12.70;99.90
11087;DHT22;5597;47.588;9.642;2023-10-09T01:51:45;12.80;99.90
11087;DHT22;5597;47.588;9.642;2023-10-09T01:54:12;12.70;99.90
11087;DHT22;5597;47.588;9.642;2023-10-09T01:56:53;12.70;99.90
11087;DHT22;5597;47.588;9.642;2023-10-09T01:59:19;12.70;99.90
11087;DHT22;5597;47.588;9.642;2023-10-09T02:01:45;12.60;99.90
11087;DHT22;5597;47.588;9.642;2023-10-09T02:04:13;12.60;99.90
11087;DHT22;5597;47.588;9.642;2023-10-09T02:06:39;12.50;99.90
11087;DHT22;5597;47.588;9.642;2023-10-09T02:09:05;12.50;99.90
11087;DHT22;5597;47.588;9.642;2023-10-09T02:11:32;12.50;99.90
11087;DHT22;5597;47.588;9.642;2023-10-09T02:14:10;12.40;99.90
11087;DHT22;5597;47.588;9.642;2023-10-09T02:16:46;12.40;99.90
11087;DHT22;5597;47.588;9.642;2023-10-09T02:19:29;12.30;99.90
11087;DHT22;5597;47.588;9.642;2023-10-09T02:22:02;12.30;99.90
11087;DHT22;5597;47.588;9.642;2023-10-09T02:24:41;12.20;99.90
11087;DHT22;5597;47.588;9.642;2023-10-09T02:27:16;12.20;99.90
11087;DHT22;5597;47.588;9.642;2023-10-09T02:30:00;12.10;99.90
11087;DHT22;5597;47.588;9.642;2023-10-09T02:32:33;12.10;99.90
11087;DHT22;5597;47.588;9.642;2023-10-09T02:35:01;12.10;99.90
11087;DHT22;5597;47.588;9.642;2023-10-09T02:37:35;12.10;99.90
11087;DHT22;5597;47.588;9.642;2023-10-09T02:40:04;12.00;99.90
11087;DHT22;5597;47.588;9.642;2023-10-09T02:42:34;12.00;99.90
11087;DHT22;5597;47.588;9.642;2023-10-09T02:45:00;12.00;99.90
11087;DHT22;5597;47.588;9.642;2023-10-09T02:47:27;11.90;99.90
11087;DHT22;5597;47.588;9.642;2023-10-09T02:49:55;11.90;99.90
11087;DHT22;5597;47.588;9.642;2023-10-09T02:52:26;11.90;99.90
11087;DHT22;5597;47.588;9.642;2023-10-09T02:54:58;11.90;99.90
11087;DHT22;5597;47.588;9.642;2023-10-09T02:57:32;11.90;99.90
11087;DHT22;5597;47.588;9.642;2023-10-09T03:00:07;11.90;99.90
11087;DHT22;5597;47.588;9.642;2023-10-09T03:02:44;11.90;99.90
11087;DHT22;5597;47.588;9.642;2023-10-09T03:05:11;11.90;99.90
11087;DHT22;5597;47.588;9.642;2023-10-09T03:07:38;11.80;99.90
11087;DHT22;5597;47.588;9.642;2023-10-09T03:10:06;11.80;99.90
11087;DHT22;5597;47.588;9.642;2023-10-09T03:12:35;11.80;99.90
11087;DHT22;5597;47.588;9.642;2023-10-09T03:15:01;11.70;99.90
11087;DHT22;5597;47.588;9.642;2023-10-09T03:17:28;11.70;99.90
11087;DHT22;5597;47.588;9.642;2023-10-09T03:19:53;11.70;99.90
11087;DHT22;5597;47.588;9.642;2023-10-09T03:22:20;11.60;99.90
11087;DHT22;5597;47.588;9.642;2023-10-09T03:24:45;11.60;99.90
11087;DHT22;5597;47.588;9.642;2023-10-09T03:27:11;11.60;99.90
11087;DHT22;5597;47.588;9.642;2023-10-09T03:29:39;11.60;99.90
11087;DHT22;5597;47.588;9.642;2023-10-09T03:32:05;11.60;99.90
11087;DHT22;5597;47.588;9.642;2023-10-09T03:34:32;11.60;99.90
11087;DHT22;5597;47.588;9.642;2023-10-09T03:36:58;11.50;99.90
11087;DHT22;5597;47.588;9.642;2023-10-09T03:39:33;11.50;99.90
11087;DHT22;5597;47.588;9.642;2023-10-09T03:41:59;11.50;99.90
11087;DHT22;5597;47.588;9.642;2023-10-09T03:44:25;11.40;99.90
11087;DHT22;5597;47.588;9.642;2023-10-09T03:46:54;11.40;99.90
11087;DHT22;5597;47.588;9.642;2023-10-09T03:49:20;11.40;99.90
11087;DHT22;5597;47.588;9.642;2023-10-09T03:51:49;11.40;99.90
11087;DHT22;5597;47.588;9.642;2023-10-09T03:54:15;11.40;99.90
11087;DHT22;5597;47.588;9.642;2023-10-09T03:56:43;11.30;99.90
11087;DHT22;5597;47.588;9.642;2023-10-09T03:59:08;11.30;99.90
11087;DHT22;5597;47.588;9.642;2023-10-09T04:01:36;11.20;99.90
11087;DHT22;5597;47.588;9.642;2023-10-09T04:04:05;11.20;99.90
11087;DHT22;5597;47.588;9.642;2023-10-09T04:06:33;11.20;99.90
11087;DHT22;5597;47.588;9.642;2023-10-09T04:09:04;11.20;99.90
11087;DHT22;5597;47.588;9.642;2023-10-09T04:11:45;11.20;99.90
11087;DHT22;5597;47.588;9.642;2023-10-09T04:14:14;11.20;99.90
11087;DHT22;5597;47.588;9.642;2023-10-09T04:16:50;11.20;99.90
11087;DHT22;5597;47.588;9.642;2023-10-09T04:19:30;11.10;99.90
11087;DHT22;5597;47.588;9.642;2023-10-09T04:22:04;11.10;99.90
11087;DHT22;5597;47.588;9.642;2023-10-09T04:24:33;11.10;99.90
11087;DHT22;5597;47.588;9.642;2023-10-09T04:27:07;11.10;99.90
11087;DHT22;5597;47.588;9.642;2023-10-09T04:29:34;11.10;99.90
11087;DHT22;5597;47.588;9.642;2023-10-09T04:32:12;11.10;99.90
11087;DHT22;5597;47.588;9.642;2023-10-09T04:34:44;11.10;99.90
11087;DHT22;5597;47.588;9.642;2023-10-09T04:37:35;11.10;99.90
11087;DHT22;5597;47.588;9.642;2023-10-09T04:40:04;11.00;99.90
11087;DHT22;5597;47.588;9.642;2023-10-09T04:42:59;11.00;99.90
11087;DHT22;5597;47.588;9.642;2023-10-09T04:45:25;10.90;99.90
11087;DHT22;5597;47.588;9.642;2023-10-09T04:48:11;10.90;99.90
11087;DHT22;5597;47.588;9.642;2023-10-09T04:50:37;10.90;99.90
11087;DHT22;5597;47.588;9.642;2023-10-09T04:53:22;10.90;99.90
11087;DHT22;5597;47.588;9.642;2023-10-09T04:55:48;10.90;99.90
11087;DHT22;5597;47.588;9.642;2023-10-09T04:58:24;10.90;99.90
11087;DHT22;5597;47.588;9.642;2023-10-09T05:00:51;10.90;99.90
11087;DHT22;5597;47.588;9.642;2023-10-09T05:03:23;10.90;99.90
11087;DHT22;5597;47.588;9.642;2023-10-09T05:06:15;10.90;99.90
11087;DHT22;5597;47.588;9.642;2023-10-09T05:08:48;10.90;99.90
11087;DHT22;5597;47.588;9.642;2023-10-09T05:11:14;10.90;99.90
11087;DHT22;5597;47.588;9.642;2023-10-09T05:13:58;10.90;99.90
11087;DHT22;5597;47.588;9.642;2023-10-09T05:16:37;10.90;99.90
11087;DHT22;5597;47.588;9.642;2023-10-09T05:19:13;10.80;99.90
11087;DHT22;5597;47.588;9.642;2023-10-09T05:21:59;10.80;99.90
11087;DHT22;5597;47.588;9.642;2023-10-09T05:24:34;10.80;99.90
11087;DHT22;5597;47.588;9.642;2023-10-09T05:27:15;10.80;99.90
11087;DHT22;5597;47.588;9.642;2023-10-09T05:29:43;10.80;99.90
11087;DHT22;5597;47.588;9.642;2023-10-09T05:32:25;10.80;99.90
11087;DHT22;5597;47.588;9.642;2023-10-09T05:34:55;10.80;99.90
11087;DHT22;5597;47.588;9.642;2023-10-09T05:37:28;10.80;99.90
11087;DHT22;5597;47.588;9.642;2023-10-09T05:40:00;10.80;99.90
11087;DHT22;5597;47.588;9.642;2023-10-09T05:42:34;10.80;99.90
11087;DHT22;5597;47.588;9.642;2023-10-09T05:45:04;10.80;99.90
11087;DHT22;5597;47.588;9.642;2023-10-09T05:47:42;10.80;99.90
11087;DHT22;5597;47.588;9.642;2023-10-09T05:50:24;10.80;99.90
11087;DHT22;5597;47.588;9.642;2023-10-09T05:52:54;10.80;99.90
11087;DHT22;5597;47.588;9.642;2023-10-09T05:55:20;10.80;99.90
11087;DHT22;5597;47.588;9.642;2023-10-09T05:58:04;10.70;99.90
11087;DHT22;5597;47.588;9.642;2023-10-09T06:00:50;10.70;99.90
11087;DHT22;5597;47.588;9.642;2023-10-09T06:03:50;10.70;99.90
11087;DHT22;5597;47.588;9.642;2023-10-09T06:06:22;10.60;99.90
11087;DHT22;5597;47.588;9.642;2023-10-09T06:09:08;10.60;99.90
11087;DHT22;5597;47.588;9.642;2023-10-09T06:11:45;10.60;99.90
11087;DHT22;5597;47.588;9.642;2023-10-09T06:14:21;10.60;99.90
11087;DHT22;5597;47.588;9.642;2023-10-09T06:16:57;10.60;99.90
11087;DHT22;5597;47.588;9.642;2023-10-09T06:19:24;10.70;99.90
11087;DHT22;5597;47.588;9.642;2023-10-09T06:21:54;10.70;99.90
11087;DHT22;5597;47.588;9.642;2023-10-09T06:24:23;10.80;99.90
11087;DHT22;5597;47.588;9.642;2023-10-09T06:26:50;10.90;99.90
11087;DHT22;5597;47.588;9.642;2023-10-09T06:29:27;11.00;99.90
11087;DHT22;5597;47.588;9.642;2023-10-09T06:32:07;11.10;99.90
11087;DHT22;5597;47.588;9.642;2023-10-09T06:34:56;11.10;99.90
11087;DHT22;5597;47.588;9.642;2023-10-09T06:37:47;11.20;99.90
11087;DHT22;5597;47.588;9.642;2023-10-09T06:40:39;11.30;99.90
11087;DHT22;5597;47.588;9.642;2023-10-09T06:43:17;11.30;99.90
11087;DHT22;5597;47.588;9.642;2023-10-09T06:45:58;11.40;99.90
11087;DHT22;5597;47.588;9.642;2023-10-09T06:48:43;11.50;99.90
11087;DHT22;5597;47.588;9.642;2023-10-09T06:51:21;11.60;99.90
11087;DHT22;5597;47.588;9.642;2023-10-09T06:53:53;11.70;99.90
11087;DHT22;5597;47.588;9.642;2023-10-09T06:56:23;11.90;99.90
11087;DHT22;5597;47.588;9.642;2023-10-09T07:01:27;12.10;99.90
11087;DHT22;5597;47.588;9.642;2023-10-09T07:03:52;12.30;99.90
11087;DHT22;5597;47.588;9.642;2023-10-09T07:06:20;12.40;99.90
11087;DHT22;5597;47.588;9.642;2023-10-09T07:09:01;12.50;99.90
11087;DHT22;5597;47.588;9.642;2023-10-09T07:11:36;12.70;99.90
11087;DHT22;5597;47.588;9.642;2023-10-09T07:14:05;12.90;99.90
11087;DHT22;5597;47.588;9.642;2023-10-09T07:16:35;13.20;99.90
11087;DHT22;5597;47.588;9.642;2023-10-09T07:19:06;13.40;99.90
11087;DHT22;5597;47.588;9.642;2023-10-09T07:21:37;13.60;99.90
11087;DHT22;5597;47.588;9.642;2023-10-09T07:24:05;13.80;99.90
11087;DHT22;5597;47.588;9.642;2023-10-09T07:26:40;14.00;99.90
11087;DHT22;5597;47.588;9.642;2023-10-09T07:29:13;14.10;99.90
11087;DHT22;5597;47.588;9.642;2023-10-09T07:31:44;14.30;99.90
11087;DHT22;5597;47.588;9.642;2023-10-09T07:34:13;14.60;99.90
11087;DHT22;5597;47.588;9.642;2023-10-09T07:36:58;14.80;99.90
11087;DHT22;5597;47.588;9.642;2023-10-09T07:39:30;15.00;99.90
11087;DHT22;5597;47.588;9.642;2023-10-09T07:42:05;15.10;99.90
11087;DHT22;5597;47.588;9.642;2023-10-09T07:44:43;15.30;99.90
11087;DHT22;5597;47.588;9.642;2023-10-09T07:47:18;15.50;99.90
11087;DHT22;5597;47.588;9.642;2023-10-09T07:50:11;15.70;99.90
11087;DHT22;5597;47.588;9.642;2023-10-09T07:52:37;15.80;99.90
11087;DHT22;5597;47.588;9.642;2023-10-09T07:55:09;15.90;99.90
11087;DHT22;5597;47.588;9.642;2023-10-09T07:57:54;16.10;99.90
11087;DHT22;5597;47.588;9.642;2023-10-09T08:00:19;16.30;99.90
11087;DHT22;5597;47.588;9.642;2023-10-09T08:03:04;16.50;99.90
11087;DHT22;5597;47.588;9.642;2023-10-09T08:05:35;16.70;99.90
11087;DHT22;5597;47.588;9.642;2023-10-09T08:08:09;17.00;99.90
11087;DHT22;5597;47.588;9.642;2023-10-09T08:10:53;17.10;99.90
11087;DHT22;5597;47.588;9.642;2023-10-09T08:13:38;17.40;99.90
11087;DHT22;5597;47.588;9.642;2023-10-09T08:16:15;17.60;99.90
11087;DHT22;5597;47.588;9.642;2023-10-09T08:18:49;17.80;99.90
11087;DHT22;5597;47.588;9.642;2023-10-09T08:21:18;18.00;99.90
11087;DHT22;5597;47.588;9.642;2023-10-09T08:23:43;18.20;99.90
11087;DHT22;5597;47.588;9.642;2023-10-09T08:26:15;18.40;99.90
11087;DHT22;5597;47.588;9.642;2023-10-09T08:28:53;18.60;99.90
11087;DHT22;5597;47.588;9.642;2023-10-09T08:31:19;18.90;99.90
11087;DHT22;5597;47.588;9.642;2023-10-09T08:34:00;19.10;99.90
11087;DHT22;5597;47.588;9.642;2023-10-09T08:36:27;19.20;99.90
11087;DHT22;5597;47.588;9.642;2023-10-09T08:39:02;19.20;99.90
11087;DHT22;5597;47.588;9.642;2023-10-09T08:41:42;19.30;99.90
11087;DHT22;5597;47.588;9.642;2023-10-09T08:44:09;19.30;99.90
11087;DHT22;5597;47.588;9.642;2023-10-09T08:46:37;19.40;99.90
11087;DHT22;5597;47.588;9.642;2023-10-09T08:49:05;19.60;99.90
11087;DHT22;5597;47.588;9.642;2023-10-09T08:51:34;19.70;99.90
11087;DHT22;5597;47.588;9.642;2023-10-09T08:54:00;20.00;99.90
11087;DHT22;5597;47.588;9.642;2023-10-09T08:56:26;20.30;99.90
11087;DHT22;5597;47.588;9.642;2023-10-09T08:58:55;20.50;99.90
11087;DHT22;5597;47.588;9.642;2023-10-09T09:01:22;20.50;99.90
11087;DHT22;5597;47.588;9.642;2023-10-09T09:03:50;20.50;99.90
11087;DHT22;5597;47.588;9.642;2023-10-09T09:06:19;20.60;99.90
11087;DHT22;5597;47.588;9.642;2023-10-09T09:08:46;20.80;99.90
11087;DHT22;5597;47.588;9.642;2023-10-09T09:11:16;20.90;99.90
11087;DHT22;5597;47.588;9.642;2023-10-09T09:14:01;21.00;99.90
11087;DHT22;5597;47.588;9.642;2023-10-09T09:16:43;21.00;99.90
11087;DHT22;5597;47.588;9.642;2023-10-09T09:19:13;21.10;99.90
11087;DHT22;5597;47.588;9.642;2023-10-09T09:21:57;21.20;99.90
11087;DHT22;5597;47.588;9.642;2023-10-09T09:24:37;21.20;99.90
11087;DHT22;5597;47.588;9.642;2023-10-09T09:27:05;21.30;99.90
11087;DHT22;5597;47.588;9.642;2023-10-09T09:29:44;21.50;99.90
11087;DHT22;5597;47.588;9.642;2023-10-09T09:32:29;21.50;99.90
11087;DHT22;5597;47.588;9.642;2023-10-09T09:35:01;21.60;99.90
11087;DHT22;5597;47.588;9.642;2023-10-09T09:37:28;21.70;99.90
11087;DHT22;5597;47.588;9.642;2023-10-09T09:40:04;21.90;99.90
11087;DHT22;5597;47.588;9.642;2023-10-09T09:42:58;22.00;99.90
11087;DHT22;5597;47.588;9.642;2023-10-09T09:45:37;22.10;99.90
11087;DHT22;5597;47.588;9.642;2023-10-09T09:48:06;22.20;99.90
11087;DHT22;5597;47.588;9.642;2023-10-09T09:50:33;22.20;99.90
11087;DHT22;5597;47.588;9.642;2023-10-09T09:52:59;22.30;99.90
11087;DHT22;5597;47.588;9.642;2023-10-09T09:55:27;22.30;99.90
11087;DHT22;5597;47.588;9.642;2023-10-09T09:57:57;22.40;99.90
11087;DHT22;5597;47.588;9.642;2023-10-09T10:00:28;22.40;99.90
11087;DHT22;5597;47.588;9.642;2023-10-09T10:03:02;22.50;99.90
11087;DHT22;5597;47.588;9.642;2023-10-09T10:05:31;22.50;99.90
11087;DHT22;5597;47.588;9.642;2023-10-09T10:07:59;22.60;99.90
11087;DHT22;5597;47.588;9.642;2023-10-09T10:13:13;22.80;99.90
11087;DHT22;5597;47.588;9.642;2023-10-09T10:18:30;22.90;99.90
11087;DHT22;5597;47.588;9.642;2023-10-09T10:21:17;22.90;99.90
11087;DHT22;5597;47.588;9.642;2023-10-09T10:23:44;22.90;99.90
11087;DHT22;5597;47.588;9.642;2023-10-09T10:26:31;23.00;99.90
11087;DHT22;5597;47.588;9.642;2023-10-09T10:29:18;23.00;99.90
11087;DHT22;5597;47.588;9.642;2023-10-09T10:32:00;23.00;99.90
11087;DHT22;5597;47.588;9.642;2023-10-09T10:34:54;23.00;99.90
11087;DHT22;5597;47.588;9.642;2023-10-09T10:37:38;23.00;99.90
11087;DHT22;5597;47.588;9.642;2023-10-09T10:40:26;23.00;99.90
11087;DHT22;5597;47.588;9.642;2023-10-09T10:43:18;23.00;99.90
11087;DHT22;5597;47.588;9.642;2023-10-09T10:46:16;23.10;99.90
11087;DHT22;5597;47.588;9.642;2023-10-09T10:49:01;23.10;99.90
11087;DHT22;5597;47.588;9.642;2023-10-09T10:51:56;23.30;99.90
11087;DHT22;5597;47.588;9.642;2023-10-09T10:54:40;23.40;99.90
11087;DHT22;5597;47.588;9.642;2023-10-09T10:57:17;23.50;99.90
11087;DHT22;5597;47.588;9.642;2023-10-09T10:59:45;23.40;99.90
11087;DHT22;5597;47.588;9.642;2023-10-09T11:02:11;23.40;99.90
11087;DHT22;5597;47.588;9.642;2023-10-09T11:04:37;23.40;99.90
11087;DHT22;5597;47.588;9.642;2023-10-09T11:07:11;23.50;99.90
11087;DHT22;5597;47.588;9.642;2023-10-09T11:09:57;23.60;99.90
11087;DHT22;5597;47.588;9.642;2023-10-09T11:15:09;23.90;99.90
11087;DHT22;5597;47.588;9.642;2023-10-09T11:18:11;24.00;99.90
11087;DHT22;5597;47.588;9.642;2023-10-09T11:20:52;24.10;99.90
11087;DHT22;5597;47.588;9.642;2023-10-09T11:23:31;24.20;99.90
11087;DHT22;5597;47.588;9.642;2023-10-09T11:26:03;24.30;99.90
11087;DHT22;5597;47.588;9.642;2023-10-09T11:31:59;24.50;99.90
11087;DHT22;5597;47.588;9.642;2023-10-09T11:34:25;24.60;99.90
11087;DHT22;5597;47.588;9.642;2023-10-09T11:36:58;24.60;99.90
11087;DHT22;5597;47.588;9.642;2023-10-09T11:39:30;24.60;99.90
11087;DHT22;5597;47.588;9.642;2023-10-09T11:42:04;24.60;99.90
11087;DHT22;5597;47.588;9.642;2023-10-09T11:44:37;24.70;99.90
11087;DHT22;5597;47.588;9.642;2023-10-09T11:47:05;24.70;99.90
11087;DHT22;5597;47.588;9.642;2023-10-09T11:49:55;24.80;99.90
11087;DHT22;5597;47.588;9.642;2023-10-09T11:52:27;25.00;99.90
11087;DHT22;5597;47.588;9.642;2023-10-09T11:55:11;25.20;99.90
11087;DHT22;5597;47.588;9.642;2023-10-09T11:57:40;25.40;99.90
11087;DHT22;5597;47.588;9.642;2023-10-09T12:00:07;25.60;99.90
11087;DHT22;5597;47.588;9.642;2023-10-09T12:02:58;25.70;99.90
11087;DHT22;5597;47.588;9.642;2023-10-09T12:05:31;25.80;99.90
11087;DHT22;5597;47.588;9.642;2023-10-09T12:07:57;26.00;99.90
11087;DHT22;5597;47.588;9.642;2023-10-09T12:10:24;26.10;99.90
11087;DHT22;5597;47.588;9.642;2023-10-09T12:12:54;26.10;99.90
11087;DHT22;5597;47.588;9.642;2023-10-09T12:15:23;26.20;99.90
11087;DHT22;5597;47.588;9.642;2023-10-09T12:17:49;26.20;99.90
11087;DHT22;5597;47.588;9.642;2023-10-09T12:20:16;26.20;99.90
11087;DHT22;5597;47.588;9.642;2023-10-09T12:23:02;26.10;99.90
11087;DHT22;5597;47.588;9.642;2023-10-09T12:25:34;26.10;99.90
11087;DHT22;5597;47.588;9.642;2023-10-09T12:28:01;26.00;99.90
11087;DHT22;5597;47.588;9.642;2023-10-09T12:30:31;26.00;99.90
11087;DHT22;5597;47.588;9.642;2023-10-09T12:33:05;26.00;99.90
11087;DHT22;5597;47.588;9.642;2023-10-09T12:35:39;25.90;99.90
11087;DHT22;5597;47.588;9.642;2023-10-09T12:38:05;25.90;99.90
11087;DHT22;5597;47.588;9.642;2023-10-09T12:40:37;25.70;99.90
11087;DHT22;5597;47.588;9.642;2023-10-09T12:43:03;25.60;99.90
11087;DHT22;5597;47.588;9.642;2023-10-09T12:45:29;25.60;99.90
11087;DHT22;5597;47.588;9.642;2023-10-09T12:48:01;25.40;99.90
11087;DHT22;5597;47.588;9.642;2023-10-09T12:50:34;25.30;99.90
11087;DHT22;5597;47.588;9.642;2023-10-09T12:53:00;25.10;99.90
11087;DHT22;5597;47.588;9.642;2023-10-09T12:55:35;24.90;99.90
11087;DHT22;5597;47.588;9.642;2023-10-09T12:58:01;24.80;99.90
11087;DHT22;5597;47.588;9.642;2023-10-09T13:00:39;24.60;99.90
11087;DHT22;5597;47.588;9.642;2023-10-09T13:03:10;24.50;99.90
11087;DHT22;5597;47.588;9.642;2023-10-09T13:05:52;24.50;99.90
11087;DHT22;5597;47.588;9.642;2023-10-09T13:08:25;24.50;99.90
11087;DHT22;5597;47.588;9.642;2023-10-09T13:10:57;24.50;99.90
11087;DHT22;5597;47.588;9.642;2023-10-09T13:13:30;24.50;99.90
11087;DHT22;5597;47.588;9.642;2023-10-09T13:16:06;24.50;99.90
11087;DHT22;5597;47.588;9.642;2023-10-09T13:18:32;24.30;99.90
11087;DHT22;5597;47.588;9.642;2023-10-09T13:20:58;24.20;99.90
11087;DHT22;5597;47.588;9.642;2023-10-09T13:23:23;24.10;99.90
11087;DHT22;5597;47.588;9.642;2023-10-09T13:25:59;24.00;99.90
11087;DHT22;5597;47.588;9.642;2023-10-09T13:28:32;23.90;99.90
11087;DHT22;5597;47.588;9.642;2023-10-09T13:30:57;23.90;99.90
11087;DHT22;5597;47.588;9.642;2023-10-09T13:33:23;23.90;99.90
11087;DHT22;5597;47.588;9.642;2023-10-09T13:35:48;23.80;99.90
11087;DHT22;5597;47.588;9.642;2023-10-09T13:38:16;23.80;99.90
11087;DHT22;5597;47.588;9.642;2023-10-09T13:40:42;23.70;99.90
11087;DHT22;5597;47.588;9.642;2023-10-09T13:43:07;23.60;99.90
11087;DHT22;5597;47.588;9.642;2023-10-09T13:45:41;23.40;99.90
11087;DHT22;5597;47.588;9.642;2023-10-09T13:48:14;23.20;99.90
11087;DHT22;5597;47.588;9.642;2023-10-09T13:50:43;23.10;99.90
11087;DHT22;5597;47.588;9.642;2023-10-09T13:53:09;23.00;99.90
11087;DHT22;5597;47.588;9.642;2023-10-09T13:55:38;22.80;99.90
11087;DHT22;5597;47.588;9.642;2023-10-09T13:58:09;22.70;99.90
11087;DHT22;5597;47.588;9.642;2023-10-09T14:00:39;22.70;99.90
11087;DHT22;5597;47.588;9.642;2023-10-09T14:03:07;22.60;99.90
11087;DHT22;5597;47.588;9.642;2023-10-09T14:05:40;22.50;99.90
11087;DHT22;5597;47.588;9.642;2023-10-09T14:08:23;22.30;99.90
11087;DHT22;5597;47.588;9.642;2023-10-09T14:10:49;22.20;99.90
11087;DHT22;5597;47.588;9.642;2023-10-09T14:13:18;22.00;99.90
11087;DHT22;5597;47.588;9.642;2023-10-09T14:15:52;21.90;99.90
11087;DHT22;5597;47.588;9.642;2023-10-09T14:18:20;21.80;99.90
11087;DHT22;5597;47.588;9.642;2023-10-09T14:20:45;21.80;99.90
11087;DHT22;5597;47.588;9.642;2023-10-09T14:23:12;21.80;99.90
11087;DHT22;5597;47.588;9.642;2023-10-09T14:25:46;21.70;99.90
11087;DHT22;5597;47.588;9.642;2023-10-09T14:28:15;21.70;99.90
11087;DHT22;5597;47.588;9.642;2023-10-09T14:30:44;21.70;99.90
11087;DHT22;5597;47.588;9.642;2023-10-09T14:33:11;21.80;99.90
11087;DHT22;5597;47.588;9.642;2023-10-09T14:35:40;21.80;99.90
11087;DHT22;5597;47.588;9.642;2023-10-09T14:38:10;21.80;99.90
11087;DHT22;5597;47.588;9.642;2023-10-09T14:40:45;21.70;99.90
11087;DHT22;5597;47.588;9.642;2023-10-09T14:43:11;21.70;99.90
11087;DHT22;5597;47.588;9.642;2023-10-09T14:45:48;21.60;99.90
11087;DHT22;5597;47.588;9.642;2023-10-09T14:48:17;21.50;99.90
11087;DHT22;5597;47.588;9.642;2023-10-09T14:50:52;21.50;99.90
11087;DHT22;5597;47.588;9.642;2023-10-09T14:53:19;21.40;99.90
11087;DHT22;5597;47.588;9.642;2023-10-09T14:55:45;21.40;99.90
11087;DHT22;5597;47.588;9.642;2023-10-09T14:58:12;21.30;99.90
11087;DHT22;5597;47.588;9.642;2023-10-09T15:00:38;21.30;99.90
11087;DHT22;5597;47.588;9.642;2023-10-09T15:03:04;21.30;99.90
11087;DHT22;5597;47.588;9.642;2023-10-09T15:05:29;21.40;99.90
11087;DHT22;5597;47.588;9.642;2023-10-09T15:07:57;21.30;99.90
11087;DHT22;5597;47.588;9.642;2023-10-09T15:10:23;21.30;99.90
11087;DHT22;5597;47.588;9.642;2023-10-09T15:12:49;21.30;99.90
11087;DHT22;5597;47.588;9.642;2023-10-09T15:15:15;21.30;99.90
11087;DHT22;5597;47.588;9.642;2023-10-09T15:17:42;21.40;99.90
11087;DHT22;5597;47.588;9.642;2023-10-09T15:20:13;21.40;99.90
11087;DHT22;5597;47.588;9.642;2023-10-09T15:22:43;21.50;99.90
11087;DHT22;5597;47.588;9.642;2023-10-09T15:25:10;21.50;99.90
11087;DHT22;5597;47.588;9.642;2023-10-09T15:27:43;21.50;99.90
11087;DHT22;5597;47.588;9.642;2023-10-09T15:30:09;21.50;99.90
11087;DHT22;5597;47.588;9.642;2023-10-09T15:32:40;21.40;99.90
11087;DHT22;5597;47.588;9.642;2023-10-09T15:35:07;21.40;99.90
11087;DHT22;5597;47.588;9.642;2023-10-09T15:37:38;21.30;99.90
11087;DHT22;5597;47.588;9.642;2023-10-09T15:40:06;21.30;99.90
11087;DHT22;5597;47.588;9.642;2023-10-09T15:42:32;21.30;99.90
11087;DHT22;5597;47.588;9.642;2023-10-09T15:44:58;21.20;99.90
11087;DHT22;5597;47.588;9.642;2023-10-09T15:47:25;21.20;99.90
11087;DHT22;5597;47.588;9.642;2023-10-09T15:49:51;21.20;99.90
11087;DHT22;5597;47.588;9.642;2023-10-09T15:52:19;21.20;99.90
11087;DHT22;5597;47.588;9.642;2023-10-09T15:54:46;21.10;99.90
11087;DHT22;5597;47.588;9.642;2023-10-09T15:57:13;21.00;99.90
11087;DHT22;5597;47.588;9.642;2023-10-09T15:59:38;21.00;99.90
11087;DHT22;5597;47.588;9.642;2023-10-09T16:02:04;20.90;99.90
11087;DHT22;5597;47.588;9.642;2023-10-09T16:04:30;20.90;99.90
11087;DHT22;5597;47.588;9.642;2023-10-09T16:07:00;20.80;99.90
11087;DHT22;5597;47.588;9.642;2023-10-09T16:09:25;20.80;99.90
11087;DHT22;5597;47.588;9.642;2023-10-09T16:11:51;20.70;99.90
11087;DHT22;5597;47.588;9.642;2023-10-09T16:14:19;20.60;99.90
11087;DHT22;5597;47.588;9.642;2023-10-09T16:16:44;20.50;99.90
11087;DHT22;5597;47.588;9.642;2023-10-09T16:19:11;20.40;99.90
11087;DHT22;5597;47.588;9.642;2023-10-09T16:21:38;20.30;99.90
11087;DHT22;5597;47.588;9.642;2023-10-09T16:24:04;20.30;99.90
11087;DHT22;5597;47.588;9.642;2023-10-09T16:26:35;20.20;99.90
11087;DHT22;5597;47.588;9.642;2023-10-09T16:29:21;20.20;99.90
11087;DHT22;5597;47.588;9.642;2023-10-09T16:31:47;20.10;99.90